createdAt,value
2019-02-24T00:02:08.358Z,43.53
2019-02-24T00:04:37.158Z,44.38
2019-02-24T00:07:05.970Z,45.95
2019-02-24T00:09:34.759Z,46.71
2019-02-24T00:12:03.569Z,46.42
2019-02-24T00:14:32.357Z,45.40
2019-02-24T00:17:01.154Z,44.36
2019-02-24T00:19:30.005Z,44.47
2019-02-24T00:21:58.784Z,44.55
2019-02-24T00:24:27.578Z,45.27
2019-02-24T00:26:56.361Z,46.24
2019-02-24T00:29:25.253Z,45.60
2019-02-24T00:31:54.012Z,45.54
2019-02-24T00:34:22.817Z,46.22
2019-02-24T00:36:51.756Z,46.33
2019-02-24T00:39:20.557Z,45.66
2019-02-24T00:41:49.416Z,46.89
2019-02-24T00:44:18.340Z,47.68
2019-02-24T00:46:47.144Z,48.16
2019-02-24T00:49:16.875Z,49.05
2019-02-24T00:51:45.669Z,49.34
2019-02-24T00:54:14.537Z,47.81
2019-02-24T00:56:43.405Z,47.97
2019-02-24T00:59:12.196Z,47.49
2019-02-24T01:01:41.009Z,47.24
2019-02-24T01:04:09.871Z,47.30
2019-02-24T01:06:38.775Z,47.83
2019-02-24T01:09:07.743Z,48.14
2019-02-24T01:11:36.523Z,49.10
2019-02-24T01:14:05.471Z,49.30
2019-02-24T01:16:34.747Z,48.43
2019-02-24T01:19:03.549Z,46.37
2019-02-24T01:21:32.398Z,44.42
2019-02-24T01:24:01.190Z,45.08
2019-02-24T01:26:29.963Z,45.43
2019-02-24T01:28:58.759Z,46.21
2019-02-24T01:31:27.666Z,46.68
2019-02-24T01:33:56.462Z,46.48
2019-02-24T01:36:25.325Z,46.48
2019-02-24T01:38:54.120Z,46.95
2019-02-24T01:41:22.923Z,47.86
2019-02-24T01:43:51.732Z,47.91
2019-02-24T01:46:20.741Z,47.85
2019-02-24T01:48:49.529Z,47.13
2019-02-24T01:51:18.309Z,51.54
2019-02-24T01:53:48.114Z,52.16
2019-02-24T01:56:16.981Z,52.01
2019-02-24T01:58:45.771Z,48.93
2019-02-24T02:01:14.557Z,49.33
2019-02-24T02:03:43.352Z,49.46
2019-02-24T02:06:12.214Z,49.32
2019-02-24T02:08:41.030Z,50.84
2019-02-24T02:11:10.107Z,53.41
2019-02-24T02:13:38.892Z,52.32
2019-02-24T02:16:07.698Z,53.48
2019-02-24T02:18:36.495Z,52.74
2019-02-24T02:21:05.381Z,53.20
2019-02-24T02:23:34.238Z,53.11
2019-02-24T02:26:03.126Z,54.05
2019-02-24T02:28:31.984Z,54.13
2019-02-24T02:31:00.790Z,56.54
2019-02-24T02:33:29.603Z,55.11
2019-02-24T02:35:58.411Z,60.10
2019-02-24T02:38:27.191Z,60.10
2019-02-24T02:40:55.987Z,57.50
2019-02-24T02:43:24.845Z,54.17
2019-02-24T02:45:53.650Z,50.94
2019-02-24T02:48:22.578Z,50.16
2019-02-24T02:50:51.629Z,50.20
2019-02-24T02:53:20.477Z,50.20
2019-02-24T02:55:49.537Z,53.67
2019-02-24T02:58:18.328Z,48.89
2019-02-24T03:00:47.271Z,50.79
2019-02-24T03:03:16.140Z,51.73
2019-02-24T03:05:55.767Z,52.06
2019-02-24T03:08:43.548Z,52.63
2019-02-24T03:11:12.373Z,47.52
2019-02-24T03:13:41.215Z,48.72
2019-02-24T03:16:10.077Z,47.92
2019-02-24T03:18:39.025Z,52.38
2019-02-24T03:21:07.823Z,50.06
2019-02-24T03:23:36.671Z,46.65
2019-02-24T03:26:05.457Z,46.39
2019-02-24T03:28:34.249Z,46.25
2019-02-24T03:31:03.047Z,46.28
2019-02-24T03:33:31.840Z,46.24
2019-02-24T03:36:00.705Z,46.02
2019-02-24T03:38:29.551Z,46.18
2019-02-24T03:40:58.510Z,46.58
2019-02-24T03:43:27.304Z,47.76
2019-02-24T03:45:56.111Z,47.77
2019-02-24T03:48:24.902Z,49.98
2019-02-24T03:50:53.783Z,52.82
2019-02-24T03:53:22.752Z,50.82
2019-02-24T03:55:51.629Z,55.05
2019-02-24T03:58:21.029Z,51.92
2019-02-24T04:00:49.899Z,53.77
2019-02-24T04:03:18.828Z,53.29
2019-02-24T04:05:47.636Z,52.71
2019-02-24T04:08:16.431Z,55.78
2019-02-24T04:10:45.271Z,53.41
2019-02-24T04:13:14.062Z,53.39
2019-02-24T04:15:42.952Z,53.89
2019-02-24T04:18:11.739Z,53.34
2019-02-24T04:20:40.555Z,53.75
2019-02-24T04:23:09.369Z,54.13
2019-02-24T04:25:38.155Z,54.38
2019-02-24T04:28:07.046Z,54.76
2019-02-24T04:30:35.830Z,54.71
2019-02-24T04:33:04.696Z,54.23
2019-02-24T04:35:33.522Z,53.95
2019-02-24T04:38:02.317Z,53.72
2019-02-24T04:40:31.102Z,53.93
2019-02-24T04:42:59.900Z,56.64
2019-02-24T04:45:28.760Z,53.62
2019-02-24T04:47:57.555Z,53.34
2019-02-24T04:50:26.344Z,58.06
2019-02-24T04:52:55.148Z,59.50
2019-02-24T04:55:23.951Z,60.06
2019-02-24T04:57:53.049Z,56.74
2019-02-24T05:00:22.603Z,54.53
2019-02-24T05:02:51.571Z,54.10
2019-02-24T05:05:20.354Z,53.20
2019-02-24T05:07:49.170Z,53.63
2019-02-24T05:10:17.981Z,53.63
2019-02-24T05:12:46.779Z,53.98
2019-02-24T05:15:15.639Z,54.53
2019-02-24T05:17:44.443Z,54.84
2019-02-24T05:20:13.218Z,54.48
2019-02-24T05:22:42.102Z,54.74
2019-02-24T05:25:11.042Z,53.98
2019-02-24T05:27:39.829Z,54.37
2019-02-24T05:30:08.695Z,54.43
2019-02-24T05:32:37.509Z,54.81
2019-02-24T05:35:06.370Z,54.85
2019-02-24T05:37:35.161Z,54.40
2019-02-24T05:40:03.987Z,54.93
2019-02-24T05:42:32.783Z,56.51
2019-02-24T05:45:01.585Z,57.18
2019-02-24T05:47:30.375Z,56.10
2019-02-24T05:49:59.145Z,56.02
2019-02-24T05:52:28.004Z,56.22
2019-02-24T05:54:56.859Z,55.96
2019-02-24T05:57:25.653Z,56.75
2019-02-24T05:59:55.436Z,58.26
2019-02-24T06:02:24.415Z,55.49
2019-02-24T06:04:54.187Z,55.77
2019-02-24T06:07:22.983Z,56.09
2019-02-24T06:09:51.913Z,57.33
2019-02-24T06:12:20.716Z,56.62
2019-02-24T06:14:49.515Z,56.62
2019-02-24T06:17:18.303Z,56.51
2019-02-24T06:19:47.189Z,57.04
2019-02-24T06:22:16.106Z,56.85
2019-02-24T06:24:44.975Z,56.91
2019-02-24T06:27:13.760Z,56.57
2019-02-24T06:29:42.604Z,56.16
2019-02-24T06:32:11.394Z,55.97
2019-02-24T06:34:40.206Z,56.08
2019-02-24T06:37:09.000Z,56.07
2019-02-24T06:39:37.809Z,55.76
2019-02-24T06:42:06.598Z,55.70
2019-02-24T06:44:35.390Z,54.96
2019-02-24T06:47:04.177Z,54.33
2019-02-24T06:49:32.974Z,53.94
2019-02-24T06:52:01.756Z,53.67
2019-02-24T06:54:30.547Z,53.64
2019-02-24T06:56:59.328Z,53.59
2019-02-24T06:59:28.118Z,53.55
2019-02-24T07:01:56.914Z,53.85
2019-02-24T07:04:25.849Z,53.99
2019-02-24T07:06:54.666Z,52.99
2019-02-24T07:09:23.531Z,52.34
2019-02-24T07:11:52.379Z,52.56
2019-02-24T07:14:21.121Z,52.37
2019-02-24T07:16:49.935Z,52.60
2019-02-24T07:19:18.726Z,52.61
2019-02-24T07:21:47.504Z,52.72
2019-02-24T07:24:16.296Z,53.34
2019-02-24T07:26:45.084Z,52.32
2019-02-24T07:29:13.889Z,52.11
2019-02-24T07:31:42.769Z,52.15
2019-02-24T07:34:11.554Z,51.50
2019-02-24T07:36:40.370Z,51.23
2019-02-24T07:39:09.228Z,51.28
2019-02-24T07:41:38.095Z,50.77
2019-02-24T07:44:07.061Z,50.46
2019-02-24T07:46:35.851Z,50.23
2019-02-24T07:49:04.648Z,50.40
2019-02-24T07:51:33.445Z,49.90
2019-02-24T07:54:02.315Z,49.96
2019-02-24T07:56:31.191Z,49.08
2019-02-24T07:59:00.196Z,49.17
2019-02-24T08:01:28.981Z,48.06
2019-02-24T08:03:57.775Z,48.58
2019-02-24T08:06:26.579Z,49.66
2019-02-24T08:08:55.411Z,49.80
2019-02-24T08:11:24.305Z,49.72
2019-02-24T08:13:53.258Z,50.21
2019-02-24T08:16:22.084Z,52.58
2019-02-24T08:18:52.058Z,49.68
2019-02-24T08:21:20.922Z,50.26
2019-02-24T08:23:49.734Z,48.98
2019-02-24T08:26:18.611Z,47.71
2019-02-24T08:28:47.431Z,48.61
2019-02-24T08:31:16.220Z,46.81
2019-02-24T08:33:44.989Z,47.17
2019-02-24T08:36:13.853Z,48.33
2019-02-24T08:38:42.680Z,51.43
2019-02-24T08:41:11.465Z,48.69
2019-02-24T08:43:40.255Z,45.81
2019-02-24T08:46:09.053Z,43.10
2019-02-24T08:48:37.837Z,41.69
2019-02-24T08:51:06.629Z,43.17
2019-02-24T08:53:35.408Z,43.61
2019-02-24T08:56:04.200Z,43.35
2019-02-24T08:58:32.973Z,42.92
2019-02-24T09:01:01.896Z,42.39
2019-02-24T09:03:30.664Z,42.37
2019-02-24T09:05:59.709Z,42.39
2019-02-24T09:08:28.557Z,41.09
2019-02-24T09:10:57.417Z,40.26
2019-02-24T09:13:26.199Z,40.08
2019-02-24T09:15:55.058Z,38.47
2019-02-24T09:18:23.866Z,37.86
2019-02-24T09:20:52.671Z,39.23
2019-02-24T09:23:21.503Z,38.53
2019-02-24T09:25:50.290Z,39.20
2019-02-24T09:28:19.239Z,37.70
2019-02-24T09:30:48.042Z,37.33
2019-02-24T09:33:16.911Z,39.14
2019-02-24T09:35:45.790Z,37.07
2019-02-24T09:38:14.585Z,36.71
2019-02-24T09:40:43.373Z,36.57
2019-02-24T09:43:12.237Z,34.31
2019-02-24T09:45:41.109Z,35.40
2019-02-24T09:48:09.896Z,33.25
2019-02-24T09:50:38.673Z,34.40
2019-02-24T09:53:07.537Z,37.08
2019-02-24T09:55:36.323Z,37.50
2019-02-24T09:58:05.479Z,35.54
2019-02-24T10:00:34.481Z,35.78
2019-02-24T10:03:03.290Z,34.65
2019-02-24T10:05:32.098Z,33.79
2019-02-24T10:08:01.782Z,36.61
2019-02-24T10:10:30.641Z,33.61
2019-02-24T10:12:59.524Z,33.12
2019-02-24T10:15:28.373Z,33.12
2019-02-24T10:17:57.181Z,32.02
2019-02-24T10:20:26.035Z,30.60
2019-02-24T10:22:54.829Z,31.74
2019-02-24T10:25:23.694Z,31.49
2019-02-24T10:27:52.500Z,30.03
2019-02-24T10:30:21.427Z,28.24
2019-02-24T10:32:50.299Z,28.09
2019-02-24T10:35:19.093Z,27.03
2019-02-24T10:37:47.890Z,26.57
2019-02-24T10:40:17.080Z,26.61
2019-02-24T10:42:46.030Z,25.72
2019-02-24T10:45:14.907Z,25.34
2019-02-24T10:47:43.741Z,26.13
2019-02-24T10:50:13.261Z,25.97
2019-02-24T10:52:42.208Z,27.04
2019-02-24T10:55:11.345Z,27.28
2019-02-24T10:57:40.205Z,27.80
2019-02-24T11:00:11.456Z,27.20
2019-02-24T11:02:40.348Z,27.76
2019-02-24T11:05:09.526Z,28.04
2019-02-24T11:07:38.573Z,26.91
2019-02-24T11:10:07.754Z,26.51
2019-02-24T11:12:36.626Z,26.10
2019-02-24T11:15:06.010Z,25.61
2019-02-24T11:17:34.881Z,25.87
2019-02-24T11:20:05.876Z,25.16
2019-02-24T11:22:34.748Z,25.72
2019-02-24T11:25:03.617Z,25.64
2019-02-24T11:27:32.423Z,25.80
2019-02-24T11:30:01.214Z,25.65
2019-02-24T11:32:30.007Z,25.18
2019-02-24T11:34:58.779Z,26.27
2019-02-24T11:37:27.566Z,25.05
2019-02-24T11:39:56.356Z,26.14
2019-02-24T11:42:25.172Z,25.78
2019-02-24T11:44:53.964Z,26.77
2019-02-24T11:47:22.758Z,25.59
2019-02-24T11:49:51.577Z,25.98
2019-02-24T11:52:20.434Z,25.49
2019-02-24T11:54:49.341Z,26.45
2019-02-24T11:57:18.138Z,25.01
2019-02-24T11:59:46.914Z,25.03
2019-02-24T12:02:15.848Z,25.01
2019-02-24T12:04:44.813Z,25.23
2019-02-24T12:07:13.761Z,25.34
2019-02-24T12:09:42.620Z,25.32
2019-02-24T12:12:11.640Z,24.44
2019-02-24T12:14:40.715Z,23.70
2019-02-24T12:17:09.839Z,24.23
2019-02-24T12:19:38.626Z,24.38
2019-02-24T12:22:07.501Z,24.41
2019-02-24T12:24:37.232Z,24.00
2019-02-24T12:27:06.360Z,24.09
2019-02-24T12:29:35.152Z,23.42
2019-02-24T12:32:06.006Z,22.97
2019-02-24T12:34:34.531Z,23.28
2019-02-24T12:37:03.562Z,23.02
2019-02-24T12:39:32.758Z,23.08
2019-02-24T12:42:01.704Z,23.60
2019-02-24T12:44:30.713Z,22.15
2019-02-24T12:47:00.510Z,21.53
2019-02-24T12:49:29.503Z,22.90
2019-02-24T12:51:58.427Z,23.90
2019-02-24T12:54:27.227Z,24.35
2019-02-24T12:56:56.016Z,24.34
2019-02-24T12:59:24.807Z,23.91
2019-02-24T13:01:53.606Z,23.93
2019-02-24T13:04:22.484Z,24.38
2019-02-24T13:06:51.291Z,24.51
2019-02-24T13:09:20.074Z,23.42
2019-02-24T13:11:48.930Z,23.72
2019-02-24T13:14:17.729Z,24.20
2019-02-24T13:16:46.582Z,24.11
2019-02-24T13:19:15.513Z,24.40
2019-02-24T13:21:44.293Z,24.26
2019-02-24T13:24:13.091Z,23.70
2019-02-24T13:26:41.882Z,23.92
2019-02-24T13:29:10.685Z,23.58
2019-02-24T13:31:40.138Z,23.72
2019-02-24T13:34:08.939Z,23.40
2019-02-24T13:36:37.790Z,23.29
2019-02-24T13:39:07.249Z,25.32
2019-02-24T13:41:36.189Z,23.23
2019-02-24T13:44:05.149Z,23.47
2019-02-24T13:46:33.931Z,23.38
2019-02-24T13:49:02.805Z,23.90
2019-02-24T13:51:31.592Z,23.46
2019-02-24T13:54:00.477Z,23.39
2019-02-24T13:56:29.261Z,24.03
2019-02-24T13:58:58.141Z,23.66
2019-02-24T14:01:26.942Z,23.30
2019-02-24T14:03:55.821Z,23.69
2019-02-24T14:06:24.607Z,23.14
2019-02-24T14:08:53.431Z,23.92
2019-02-24T14:11:22.218Z,23.76
2019-02-24T14:13:51.022Z,23.45
2019-02-24T14:16:19.958Z,24.13
2019-02-24T14:18:50.029Z,23.44
2019-02-24T14:21:18.929Z,23.40
2019-02-24T14:23:47.701Z,23.78
2019-02-24T14:26:16.506Z,23.49
2019-02-24T14:28:45.293Z,22.77
2019-02-24T14:31:14.084Z,23.00
2019-02-24T14:33:42.943Z,23.21
2019-02-24T14:36:11.768Z,22.35
2019-02-24T14:38:40.713Z,22.75
2019-02-24T14:41:09.530Z,22.65
2019-02-24T14:43:38.322Z,22.91
2019-02-24T14:46:07.191Z,22.02
2019-02-24T14:48:35.994Z,21.92
2019-02-24T14:51:04.891Z,21.62
2019-02-24T14:53:33.682Z,21.76
2019-02-24T14:56:02.483Z,21.38
2019-02-24T14:58:31.347Z,21.87
2019-02-24T15:01:00.828Z,22.27
2019-02-24T15:03:29.804Z,21.47
2019-02-24T15:05:58.682Z,21.62
2019-02-24T15:08:27.531Z,21.15
2019-02-24T15:10:56.622Z,21.68
2019-02-24T15:13:25.687Z,21.68
2019-02-24T15:15:54.693Z,21.28
2019-02-24T15:18:23.514Z,21.89
2019-02-24T15:20:52.456Z,21.99
2019-02-24T15:23:21.364Z,21.34
2019-02-24T15:25:50.160Z,20.95
2019-02-24T15:28:18.949Z,21.59
2019-02-24T15:30:47.892Z,21.17
2019-02-24T15:33:16.674Z,21.89
2019-02-24T15:35:45.943Z,20.84
2019-02-24T15:38:14.723Z,20.72
2019-02-24T15:40:43.634Z,20.50
2019-02-24T15:43:12.501Z,20.70
2019-02-24T15:45:41.383Z,20.47
2019-02-24T15:48:10.318Z,20.36
2019-02-24T15:50:39.114Z,20.52
2019-02-24T15:53:07.968Z,21.33
2019-02-24T15:55:36.844Z,21.51
2019-02-24T15:58:05.795Z,20.69
2019-02-24T16:00:34.693Z,20.66
2019-02-24T16:03:03.483Z,20.43
2019-02-24T16:05:32.349Z,20.73
2019-02-24T16:08:01.261Z,21.05
2019-02-24T16:10:30.102Z,20.46
2019-02-24T16:12:59.019Z,20.53
2019-02-24T16:15:27.987Z,20.49
2019-02-24T16:17:56.795Z,20.57
2019-02-24T16:20:26.072Z,20.52
2019-02-24T16:22:54.956Z,20.89
2019-02-24T16:25:23.831Z,20.97
2019-02-24T16:27:53.038Z,21.21
2019-02-24T16:30:22.043Z,21.42
2019-02-24T16:32:50.846Z,21.50
2019-02-24T16:35:19.686Z,21.62
2019-02-24T16:37:48.463Z,22.64
2019-02-24T16:40:18.738Z,23.10
2019-02-24T16:42:47.805Z,24.01
2019-02-24T16:45:16.865Z,23.14
2019-02-24T16:47:45.912Z,22.88
2019-02-24T16:50:15.698Z,23.27
2019-02-24T16:52:44.597Z,23.14
2019-02-24T16:55:14.312Z,23.42
2019-02-24T16:57:43.184Z,24.04
2019-02-24T17:00:17.326Z,24.88
2019-02-24T17:02:46.198Z,25.72
2019-02-24T17:05:15.641Z,26.31
2019-02-24T17:07:44.522Z,26.89
2019-02-24T17:10:15.091Z,27.43
2019-02-24T17:12:44.082Z,27.74
2019-02-24T17:15:13.039Z,27.86
2019-02-24T17:17:41.938Z,28.20
2019-02-24T17:20:12.546Z,28.42
2019-02-24T17:22:41.501Z,28.77
2019-02-24T17:25:10.656Z,28.99
2019-02-24T17:27:39.453Z,29.54
2019-02-24T17:30:09.407Z,30.01
2019-02-24T17:32:38.246Z,30.40
2019-02-24T17:35:07.606Z,30.98
2019-02-24T17:37:36.478Z,31.55
2019-02-24T17:40:06.072Z,32.10
2019-02-24T17:42:34.951Z,32.66
2019-02-24T17:45:03.813Z,33.23
2019-02-24T17:47:32.599Z,33.42
2019-02-24T17:50:01.394Z,33.67
2019-02-24T17:52:30.258Z,33.98
2019-02-24T17:54:59.051Z,34.25
2019-02-24T17:57:27.841Z,34.75
2019-02-24T17:59:56.693Z,34.77
2019-02-24T18:02:25.558Z,34.89
2019-02-24T18:04:54.345Z,34.91
2019-02-24T18:07:23.193Z,35.21
2019-02-24T18:09:52.049Z,35.50
2019-02-24T18:12:20.842Z,36.09
2019-02-24T18:14:50.403Z,36.41
2019-02-24T18:17:19.262Z,36.57
2019-02-24T18:19:52.007Z,36.56
2019-02-24T18:22:20.863Z,36.65
2019-02-24T18:24:50.484Z,37.74
2019-02-24T18:27:19.221Z,38.28
2019-02-24T18:29:48.010Z,37.76
2019-02-24T18:32:16.866Z,37.00
2019-02-24T18:34:45.668Z,37.46
2019-02-24T18:37:14.469Z,38.58
2019-02-24T18:39:43.338Z,39.10
2019-02-24T18:42:12.103Z,39.40
2019-02-24T18:44:41.041Z,39.72
2019-02-24T18:47:09.839Z,40.19
2019-02-24T18:49:38.621Z,40.35
2019-02-24T18:52:07.433Z,40.64
2019-02-24T18:54:36.221Z,40.96
2019-02-24T18:57:05.203Z,40.87
2019-02-24T18:59:35.639Z,40.52
2019-02-24T19:02:04.485Z,40.16
2019-02-24T19:04:33.291Z,39.85
2019-02-24T19:07:02.157Z,39.44
2019-02-24T19:09:30.954Z,39.10
2019-02-24T19:11:59.819Z,39.23
2019-02-24T19:14:28.639Z,38.63
2019-02-24T19:16:57.433Z,38.61
2019-02-24T19:19:26.233Z,36.64
2019-02-24T19:21:55.193Z,34.99
2019-02-24T19:24:23.980Z,34.28
2019-02-24T19:26:52.904Z,34.29
2019-02-24T19:29:22.691Z,34.69
2019-02-24T19:31:52.037Z,34.53
2019-02-24T19:34:20.877Z,34.14
2019-02-24T19:36:49.666Z,33.97
2019-02-24T19:39:18.474Z,33.80
2019-02-24T19:41:47.281Z,32.35
2019-02-24T19:44:16.080Z,32.94
2019-02-24T19:46:44.932Z,32.00
2019-02-24T19:49:13.865Z,31.88
2019-02-24T19:51:42.793Z,31.92
2019-02-24T19:54:11.586Z,31.49
2019-02-24T19:56:40.368Z,31.62
2019-02-24T19:59:09.166Z,32.82
2019-02-24T20:01:37.944Z,33.09
2019-02-24T20:04:15.599Z,33.15
2019-02-24T20:06:37.362Z,33.00
2019-02-24T20:09:07.344Z,33.74
2019-02-24T20:11:36.228Z,32.14
2019-02-24T20:14:05.113Z,32.07
2019-02-24T20:16:34.000Z,32.34
2019-02-24T20:19:02.843Z,31.90
2019-02-24T20:21:31.639Z,31.87
2019-02-24T20:24:00.424Z,31.56
2019-02-24T20:26:29.221Z,32.46
2019-02-24T20:28:58.004Z,32.12
2019-02-24T20:31:26.797Z,32.17
2019-02-24T20:33:55.569Z,32.59
2019-02-24T20:36:24.379Z,31.89
2019-02-24T20:38:53.852Z,32.12
2019-02-24T20:41:22.652Z,31.92
2019-02-24T20:43:51.471Z,36.77
2019-02-24T20:46:20.351Z,34.96
2019-02-24T20:48:49.154Z,38.79
2019-02-24T20:51:17.971Z,35.90
2019-02-24T20:53:46.791Z,38.11
2019-02-24T20:56:15.659Z,34.10
2019-02-24T20:58:44.445Z,35.59
2019-02-24T21:01:13.254Z,37.02
2019-02-24T21:03:42.077Z,35.24
2019-02-24T21:06:10.966Z,37.46
2019-02-24T21:08:39.736Z,36.48
2019-02-24T21:11:08.564Z,35.61
2019-02-24T21:13:37.351Z,35.61
2019-02-24T21:16:06.292Z,36.19
2019-02-24T21:18:35.148Z,40.66
2019-02-24T21:21:04.006Z,37.35
2019-02-24T21:23:32.793Z,39.24
2019-02-24T21:26:01.669Z,37.18
2019-02-24T21:28:30.460Z,37.34
2019-02-24T21:30:59.255Z,36.45
2019-02-24T21:33:28.047Z,36.39
2019-02-24T21:35:56.987Z,38.22
2019-02-24T21:38:25.815Z,38.61
2019-02-24T21:40:55.659Z,38.73
2019-02-24T21:43:24.435Z,36.10
2019-02-24T21:45:53.322Z,36.38
2019-02-24T21:48:22.093Z,39.04
2019-02-24T21:50:50.971Z,33.79
2019-02-24T21:53:19.923Z,33.95
2019-02-24T21:55:48.712Z,33.54
2019-02-24T21:58:17.497Z,33.71
2019-02-24T22:02:39.422Z,33.75
2019-02-24T22:05:08.838Z,33.11
2019-02-24T22:07:37.634Z,33.22
2019-02-24T22:10:07.248Z,33.36
2019-02-24T22:12:36.061Z,33.14
2019-02-24T22:15:06.504Z,34.32
2019-02-24T22:17:35.449Z,34.66
2019-02-24T22:20:04.716Z,35.01
2019-02-24T22:22:33.590Z,35.56
2019-02-24T22:25:02.462Z,35.94
2019-02-24T22:27:31.353Z,38.76
2019-02-24T22:30:00.837Z,42.48
2019-02-24T22:32:29.673Z,43.84
2019-02-24T22:34:58.563Z,45.39
2019-02-24T22:37:27.392Z,45.93
2019-02-24T22:39:56.136Z,46.01
2019-02-24T22:42:25.024Z,47.31
2019-02-24T22:44:53.818Z,46.78
2019-02-24T22:47:22.611Z,47.63
2019-02-24T22:49:51.546Z,48.54
2019-02-24T22:52:20.419Z,50.27
2019-02-24T22:54:49.630Z,50.41
2019-02-24T22:57:18.408Z,50.37
2019-02-24T22:59:47.177Z,53.25
2019-02-24T23:02:17.877Z,55.09
2019-02-24T23:04:46.662Z,49.11
2019-02-24T23:07:15.609Z,44.42
2019-02-24T23:09:44.458Z,41.32
2019-02-24T23:12:13.337Z,40.02
2019-02-24T23:14:42.166Z,39.84
2019-02-24T23:17:10.976Z,42.69
2019-02-24T23:19:39.761Z,45.57
2019-02-24T23:22:08.564Z,50.49
2019-02-24T23:24:37.343Z,52.09
2019-02-24T23:27:06.249Z,52.58
2019-02-24T23:29:36.438Z,54.27
2019-02-24T23:32:05.432Z,53.34
2019-02-24T23:34:34.196Z,46.28
2019-02-24T23:37:02.983Z,42.78
2019-02-24T23:39:31.795Z,48.08
2019-02-24T23:42:00.575Z,50.73
2019-02-24T23:44:29.543Z,52.41
2019-02-24T23:46:58.326Z,55.49
2019-02-24T23:49:27.139Z,55.49
2019-02-24T23:51:55.991Z,56.86
2019-02-24T23:54:24.790Z,57.49
2019-02-24T23:56:53.584Z,58.21
2019-02-24T23:59:22.369Z,58.80
